Terminal Aerodrome Forecast
Issued by NWS

Home | Current Version | Previous Version | Text Only | Print | Product List | Glossary On
Versions: 1 2 3 4 5 6 7 8 9 10 11 12 13 14 15 16 17 18 19 20 21 22
000
FTUS43 KMKX 282320
TAFENW
TAF
KENW 282320Z 2900/2924 18012G22KT P6SM VCTS BKN050CB
     FM290200 19010G20KT P6SM TSRA BKN040CB
     FM290300 19010KT P6SM VCTS BKN035CB
     FM290500 19007KT P6SM BKN035
     FM291100 21008KT P6SM SCT150
     FM291300 21009KT P6SM BKN150
     FM291700 24012G20KT P6SM BKN035
     FM292300 26011G19KT P6SM SCT250=

USA.gov is the U.S. government's official web portal to all federal, state and local government web resources and services.